Time;durP1;ratioP1;P1;durP2;ratioP2;P2;SDS_P1;SDS_P2;PMS_P1;PMS_P2;Temp;Humidity;BMP_temperature;BMP_pressure;BME280_temperature;BME280_humidity;BME280_pressure;Samples;Min_cycle;Max_cycle;Signal;HPM_P1;HPM_P2
2022/03/27 00:01:47;;;;;;;17.40;9.90;;;8.30;99.90;;;;;;6263910;23;20226;-83
2022/03/27 00:04:14;;;;;;;22.23;9.57;;;8.30;99.90;;;;;;6264873;22;20177;-83
2022/03/27 00:06:40;;;;;;;21.83;10.80;;;8.10;99.90;;;;;;6265837;22;20226;-84
2022/03/27 00:09:07;;;;;;;23.30;9.55;;;8.30;99.90;;;;;;6265704;23;20178;-85
2022/03/27 00:11:36;;;;;;;23.00;9.48;;;8.40;99.90;;;;;;6267344;22;20190;-82
2022/03/27 00:14:06;;;;;;;26.02;10.23;;;8.30;99.90;;;;;;6266617;23;20192;-82
2022/03/27 00:16:34;;;;;;;25.73;10.13;;;8.40;99.90;;;;;;6267672;22;20209;-82
2022/03/27 00:19:02;;;;;;;20.15;10.73;;;8.50;99.90;;;;;;6266790;23;20165;-83
2022/03/27 00:21:29;;;;;;;23.63;11.43;;;8.40;99.90;;;;;;6267906;23;20182;-81
2022/03/27 00:23:56;;;;;;;16.10;9.50;;;8.40;99.90;;;;;;6268710;22;20170;-81
2022/03/27 00:26:23;;;;;;;23.40;9.30;;;8.30;99.90;;;;;;6270957;22;20203;-82
2022/03/27 00:28:52;;;;;;;25.67;8.75;;;8.30;99.90;;;;;;6273097;22;20348;-81
2022/03/27 00:31:19;;;;;;;32.05;9.88;;;8.40;99.90;;;;;;6273464;22;20174;-81
2022/03/27 00:33:47;;;;;;;34.03;10.05;;;8.40;99.90;;;;;;6269595;22;20174;-84
2022/03/27 00:36:16;;;;;;;50.75;31.02;;;8.40;99.90;;;;;;6269586;22;20361;-84
2022/03/27 00:38:45;;;;;;;22.73;8.75;;;8.40;99.90;;;;;;6266608;23;20182;-83
2022/03/27 00:41:14;;;;;;;23.83;8.80;;;8.50;99.90;;;;;;6267164;22;20182;-85
2022/03/27 00:43:41;;;;;;;32.13;9.65;;;8.50;99.90;;;;;;6266756;22;20269;-82
2022/03/27 00:46:10;;;;;;;27.23;8.55;;;8.60;99.90;;;;;;6265028;22;20259;-82
2022/03/27 00:48:37;;;;;;;17.90;8.23;;;8.60;99.90;;;;;;6266121;22;20190;-80
2022/03/27 00:51:05;;;;;;;14.13;7.65;;;8.80;99.90;;;;;;6273357;22;20186;-78
2022/03/27 00:53:32;;;;;;;26.35;8.18;;;8.70;99.90;;;;;;6274075;22;20166;-78
2022/03/27 00:55:59;;;;;;;26.67;8.55;;;8.70;99.90;;;;;;6274032;22;20206;-81
2022/03/27 00:58:26;;;;;;;20.80;7.43;;;8.70;99.90;;;;;;6274868;22;20181;-83
2022/03/27 01:01:03;;;;;;;21.55;9.65;;;8.70;99.90;;;;;;6271270;22;20175;-84
2022/03/27 01:03:31;;;;;;;17.38;6.00;;;8.70;99.90;;;;;;6265184;23;20197;-82
2022/03/27 01:05:59;;;;;;;22.50;10.35;;;8.80;99.90;;;;;;6265807;22;20202;-84
2022/03/27 01:11:16;;;;;;;18.67;7.70;;;8.80;99.90;;;;;;6269226;23;20178;-82
2022/03/27 01:13:55;;;;;;;31.15;7.75;;;8.90;99.90;;;;;;6269074;23;20178;-80
2022/03/27 01:16:43;;;;;;;29.33;7.05;;;8.90;99.90;;;;;;6268958;22;20209;-81
2022/03/27 01:19:14;;;;;;;29.30;7.97;;;9.00;99.90;;;;;;6261938;22;20189;-83
2022/03/27 01:21:45;;;;;;;21.40;7.97;;;9.20;99.90;;;;;;6268581;23;20177;-81
2022/03/27 01:24:13;;;;;;;20.38;8.10;;;8.90;99.90;;;;;;6268999;22;20218;-81
2022/03/27 01:26:41;;;;;;;24.70;7.32;;;8.70;99.90;;;;;;6268833;22;20187;-80
2022/03/27 01:29:08;;;;;;;24.33;8.73;;;8.80;99.90;;;;;;6268358;23;20179;-82
2022/03/27 01:31:36;;;;;;;23.88;9.30;;;8.70;99.90;;;;;;6268306;23;20618;-82
2022/03/27 01:34:04;;;;;;;24.10;8.95;;;8.70;99.90;;;;;;6268611;23;20648;-81
2022/03/27 01:36:35;;;;;;;30.15;8.15;;;8.90;99.90;;;;;;6269355;22;20201;-81
2022/03/27 01:39:06;;;;;;;34.53;9.05;;;8.70;99.90;;;;;;6267783;22;20178;-82
2022/03/27 01:41:33;;;;;;;24.58;9.05;;;8.70;99.90;;;;;;6268282;23;20167;-80
2022/03/27 01:44:00;;;;;;;25.58;8.75;;;8.70;99.90;;;;;;6267825;23;20426;-80
2022/03/27 01:46:31;;;;;;;29.05;9.90;;;8.60;99.90;;;;;;6268982;22;20249;-82
2022/03/27 01:49:00;;;;;;;27.48;10.30;;;8.60;99.90;;;;;;6269219;23;20185;-81
2022/03/27 01:51:27;;;;;;;27.73;9.85;;;8.70;99.90;;;;;;6268539;23;20175;-81
2022/03/27 01:53:54;;;;;;;26.00;10.38;;;8.70;99.90;;;;;;6262014;22;20174;-81
2022/03/27 01:56:24;;;;;;;20.00;7.63;;;8.70;99.90;;;;;;6266647;22;20213;-82
2022/03/27 01:58:51;;;;;;;26.13;8.38;;;8.90;99.90;;;;;;6268613;23;20464;-81
2022/03/27 02:01:19;;;;;;;29.88;9.95;;;8.90;99.90;;;;;;6268260;23;20226;-82
2022/03/27 02:03:46;;;;;;;21.10;10.15;;;8.90;99.90;;;;;;6266667;23;20652;-84
2022/03/27 02:06:13;;;;;;;29.90;10.55;;;9.00;99.90;;;;;;6266689;22;20712;-82
2022/03/27 02:08:41;;;;;;;31.88;10.25;;;9.00;99.90;;;;;;6264579;22;20229;-81
2022/03/27 02:11:08;;;;;;;30.08;14.30;;;8.90;99.90;;;;;;6265421;23;20199;-83
2022/03/27 02:13:37;;;;;;;31.95;13.45;;;8.90;99.90;;;;;;6264024;23;20174;-82
2022/03/27 02:16:04;;;;;;;33.17;12.85;;;9.00;99.90;;;;;;6265067;22;20214;-82
2022/03/27 02:18:32;;;;;;;34.80;12.10;;;8.90;99.90;;;;;;6268894;22;20166;-80
2022/03/27 02:21:01;;;;;;;37.55;11.88;;;8.90;99.90;;;;;;6271613;22;20163;-79
2022/03/27 02:23:28;;;;;;;32.80;12.75;;;8.80;99.90;;;;;;6273615;22;20195;-78
2022/03/27 02:25:56;;;;;;;29.08;11.75;;;8.80;99.90;;;;;;6273537;22;20206;-81
2022/03/27 02:28:24;;;;;;;29.05;11.50;;;8.70;99.90;;;;;;6273484;22;20158;-80
2022/03/27 02:30:53;;;;;;;29.23;11.27;;;8.60;99.90;;;;;;6272587;22;20182;-80
2022/03/27 02:33:20;;;;;;;32.90;9.73;;;8.60;99.90;;;;;;6273522;22;20205;-80
2022/03/27 02:35:47;;;;;;;35.22;14.35;;;8.60;99.90;;;;;;6273133;22;20198;-78
2022/03/27 02:38:14;;;;;;;39.70;14.48;;;8.80;99.90;;;;;;6272392;22;20182;-81
2022/03/27 02:40:42;;;;;;;41.97;14.18;;;8.50;99.90;;;;;;6272078;22;20182;-80
2022/03/27 02:43:10;;;;;;;32.08;13.68;;;8.40;99.90;;;;;;6272416;22;20212;-81
2022/03/27 02:45:38;;;;;;;33.53;13.63;;;8.40;99.90;;;;;;6272346;22;20202;-80
2022/03/27 02:48:07;;;;;;;38.80;14.85;;;8.50;99.90;;;;;;6273089;22;20166;-79
2022/03/27 02:50:37;;;;;;;33.70;13.20;;;8.50;99.90;;;;;;6272601;22;20170;-79
2022/03/27 02:53:04;;;;;;;33.72;13.85;;;8.50;99.90;;;;;;6272799;22;20158;-80
2022/03/27 02:55:31;;;;;;;38.55;13.70;;;8.50;99.90;;;;;;6272708;22;20200;-78
2022/03/27 02:57:58;;;;;;;28.60;15.02;;;8.50;99.90;;;;;;6269183;22;20173;-82
2022/03/27 03:00:26;;;;;;;54.10;14.57;;;8.40;99.90;;;;;;6265730;23;20214;-80
2022/03/27 03:02:53;;;;;;;37.08;14.35;;;8.40;99.90;;;;;;6265869;23;20190;-83
2022/03/27 03:05:22;;;;;;;32.90;14.68;;;8.40;99.90;;;;;;6267622;22;20198;-82
2022/03/27 03:07:50;;;;;;;39.60;14.10;;;8.40;99.90;;;;;;6266744;23;20185;-81
2022/03/27 03:10:18;;;;;;;35.90;13.60;;;8.30;99.90;;;;;;6264923;23;20560;-83
2022/03/27 03:12:45;;;;;;;41.65;14.15;;;8.30;99.90;;;;;;6264185;23;20501;-82
2022/03/27 03:15:13;;;;;;;32.85;14.02;;;8.40;99.90;;;;;;6265541;22;20233;-84
2022/03/27 03:17:40;;;;;;;27.60;13.88;;;8.40;99.90;;;;;;6265026;23;20170;-81
2022/03/27 03:20:08;;;;;;;30.60;15.18;;;8.40;99.90;;;;;;6270502;22;20194;-81
2022/03/27 03:22:40;;;;;;;27.63;15.93;;;8.50;99.90;;;;;;6271816;22;20216;-80
2022/03/27 03:25:08;;;;;;;36.50;11.68;;;8.50;99.90;;;;;;6272329;22;20182;-79
2022/03/27 03:27:35;;;;;;;30.50;13.98;;;8.50;99.90;;;;;;6272204;22;20158;-79
2022/03/27 03:30:02;;;;;;;36.55;14.23;;;8.50;99.90;;;;;;6264781;23;20192;-83
2022/03/27 03:32:29;;;;;;;31.65;14.55;;;8.50;99.90;;;;;;6265078;23;20655;-82
2022/03/27 03:34:56;;;;;;;29.20;15.20;;;8.50;99.90;;;;;;6264642;22;20178;-83
2022/03/27 03:37:24;;;;;;;36.55;14.98;;;8.40;99.90;;;;;;6266066;23;20220;-83
2022/03/27 03:39:52;;;;;;;34.85;15.02;;;8.40;99.90;;;;;;6264553;23;20182;-83
2022/03/27 03:42:19;;;;;;;32.38;15.63;;;8.40;99.90;;;;;;6264910;23;20182;-84
2022/03/27 03:44:46;;;;;;;31.10;15.40;;;8.40;99.90;;;;;;6264572;22;20182;-83
2022/03/27 03:47:14;;;;;;;35.85;13.60;;;8.30;99.90;;;;;;6264430;23;20193;-84
2022/03/27 03:49:41;;;;;;;38.72;13.88;;;8.20;99.90;;;;;;6264774;22;20188;-84
2022/03/27 03:52:08;;;;;;;41.60;16.83;;;8.20;99.90;;;;;;6265163;23;20388;-84
2022/03/27 03:54:35;;;;;;;36.67;15.15;;;8.30;99.90;;;;;;6265438;23;20193;-80
2022/03/27 04:04:30;;;;;;;81.57;18.70;;;8.30;99.90;;;;;;6252714;23;20198;-85
2022/03/27 04:14:24;;;;;;;44.38;16.30;;;8.10;99.90;;;;;;6254669;23;20288;-84
2022/03/27 04:26:54;;;;;;;45.40;17.48;;;8.00;99.90;;;;;;6252270;22;20582;-84
2022/03/27 04:39:38;;;;;;;33.55;16.70;;;8.10;99.90;;;;;;5992408;24;20189;-84
2022/03/27 04:42:09;;;;;;;44.85;19.90;;;7.90;99.90;;;;;;6167184;23;20183;-83
2022/03/27 04:44:35;;;;;;;36.40;19.27;;;7.70;99.90;;;;;;6246809;22;20207;-84
2022/03/27 04:47:03;;;;;;;48.72;15.93;;;7.90;99.90;;;;;;6260555;22;20250;-85
2022/03/27 04:49:30;;;;;;;47.15;20.13;;;7.80;99.90;;;;;;6256786;23;20640;-85
2022/03/27 04:51:57;;;;;;;37.42;18.73;;;7.80;99.90;;;;;;6253989;22;20181;-85
2022/03/27 04:54:24;;;;;;;47.45;20.70;;;7.80;99.90;;;;;;6253798;23;20170;-84
2022/03/27 04:56:51;;;;;;;42.42;20.38;;;7.80;99.90;;;;;;6251371;22;20281;-85
2022/03/27 04:59:19;;;;;;;51.25;22.92;;;7.70;99.90;;;;;;6252782;23;20209;-84
2022/03/27 05:01:46;;;;;;;46.72;24.30;;;7.60;99.90;;;;;;6254604;23;20258;-84
2022/03/27 05:04:13;;;;;;;60.03;25.45;;;7.60;99.90;;;;;;6263797;23;20209;-85
2022/03/27 05:06:40;;;;;;;57.72;24.25;;;7.70;99.90;;;;;;6255150;22;20189;-84
2022/03/27 05:09:07;;;;;;;59.92;24.15;;;7.80;99.90;;;;;;6254790;23;20210;-84
2022/03/27 05:11:34;;;;;;;58.40;29.50;;;7.80;99.90;;;;;;6250693;23;20186;-84
2022/03/27 05:14:01;;;;;;;65.20;28.85;;;8.00;99.90;;;;;;6251685;23;20178;-84
2022/03/27 05:16:29;;;;;;;62.42;29.63;;;7.90;99.90;;;;;;6251439;22;20583;-85
2022/03/27 05:18:56;;;;;;;52.20;25.92;;;7.80;99.90;;;;;;6253139;22;20181;-85
2022/03/27 05:21:25;;;;;;;56.53;25.85;;;7.80;99.90;;;;;;6251633;23;20180;-84
2022/03/27 05:23:52;;;;;;;61.63;28.25;;;7.70;99.90;;;;;;6252049;23;20193;-85
2022/03/27 05:26:19;;;;;;;61.78;27.27;;;7.70;99.90;;;;;;6251061;22;20204;-84
2022/03/27 05:28:46;;;;;;;61.00;29.80;;;7.60;99.90;;;;;;6251620;23;20185;-84
2022/03/27 05:31:12;;;;;;;70.20;30.35;;;7.70;99.90;;;;;;6251939;23;20220;-83
2022/03/27 05:33:41;;;;;;;63.08;30.85;;;7.80;99.90;;;;;;6252578;23;20178;-84
2022/03/27 05:36:09;;;;;;;69.15;31.77;;;7.80;99.90;;;;;;6254277;22;20509;-84
2022/03/27 05:38:37;;;;;;;75.43;35.03;;;7.90;99.90;;;;;;6252434;23;20205;-84
2022/03/27 05:41:04;;;;;;;73.70;34.28;;;7.90;99.90;;;;;;6251952;23;20211;-85
2022/03/27 05:43:31;;;;;;;74.38;35.63;;;7.90;99.90;;;;;;6252006;23;20247;-84
2022/03/27 05:45:58;;;;;;;77.15;34.88;;;8.00;99.90;;;;;;6254038;22;20177;-85
2022/03/27 05:48:26;;;;;;;80.85;31.42;;;8.00;99.90;;;;;;6260049;22;20204;-85
2022/03/27 05:50:54;;;;;;;82.30;35.40;;;8.00;99.90;;;;;;6260892;23;20233;-85
2022/03/27 05:53:21;;;;;;;77.32;35.83;;;7.90;99.90;;;;;;6258053;23;20318;-82
2022/03/27 05:55:48;;;;;;;77.88;31.98;;;7.90;99.90;;;;;;6252388;22;20272;-85
2022/03/27 05:58:16;;;;;;;77.85;33.13;;;7.90;99.90;;;;;;6253181;22;20176;-84
2022/03/27 06:00:43;;;;;;;85.03;35.67;;;7.90;99.90;;;;;;6251808;23;20178;-84
2022/03/27 06:03:10;;;;;;;85.88;35.92;;;8.00;99.90;;;;;;6251591;22;20190;-85
2022/03/27 06:05:37;;;;;;;80.80;38.22;;;8.10;99.90;;;;;;6251527;23;20232;-85
2022/03/27 06:08:06;;;;;;;77.85;35.72;;;8.10;99.90;;;;;;6252330;22;20688;-84
2022/03/27 06:10:35;;;;;;;82.25;38.85;;;8.20;99.90;;;;;;6251985;23;20182;-85
2022/03/27 06:13:03;;;;;;;96.07;40.33;;;8.30;99.90;;;;;;6250802;22;20178;-85
2022/03/27 06:15:32;;;;;;;87.25;38.50;;;8.10;99.90;;;;;;6255349;23;20174;-85
2022/03/27 06:17:59;;;;;;;85.40;39.20;;;8.30;99.90;;;;;;6255191;22;20198;-85
2022/03/27 06:20:28;;;;;;;85.13;38.72;;;8.30;99.90;;;;;;6269224;22;20205;-85
2022/03/27 06:22:56;;;;;;;88.47;39.95;;;8.30;99.90;;;;;;6272846;22;20182;-85
2022/03/27 06:25:27;;;;;;;76.72;33.72;;;8.40;99.90;;;;;;6272939;22;20153;-83
2022/03/27 06:27:55;;;;;;;92.47;40.10;;;8.30;99.90;;;;;;6273547;22;20209;-83
2022/03/27 06:30:23;;;;;;;102.30;38.40;;;8.30;99.90;;;;;;6273651;22;20165;-82
2022/03/27 06:32:52;;;;;;;98.20;38.15;;;8.40;99.90;;;;;;6273696;22;20166;-83
2022/03/27 06:35:21;;;;;;;95.80;41.60;;;8.40;99.90;;;;;;6273675;22;20173;-84
2022/03/27 06:37:52;;;;;;;88.60;38.17;;;8.60;99.90;;;;;;6273240;22;20197;-83
2022/03/27 06:40:21;;;;;;;104.88;39.53;;;8.40;99.90;;;;;;6273175;22;20204;-82
2022/03/27 06:42:53;;;;;;;97.57;35.33;;;8.50;99.90;;;;;;6272180;22;20155;-82
2022/03/27 06:45:22;;;;;;;97.80;38.75;;;8.60;99.90;;;;;;6272734;22;20216;-82
2022/03/27 06:48:13;;;;;;;100.05;38.05;;;8.60;99.90;;;;;;6268497;22;20197;-84
2022/03/27 06:50:50;;;;;;;94.50;35.17;;;8.80;99.90;;;;;;6257528;23;20159;-83
2022/03/27 06:53:37;;;;;;;86.70;36.33;;;8.70;99.90;;;;;;6254919;23;20204;-85
2022/03/27 06:56:04;;;;;;;82.50;36.47;;;8.50;99.90;;;;;;6255962;22;20245;-85
2022/03/27 06:58:37;;;;;;;94.13;34.97;;;8.80;99.90;;;;;;6255536;23;20166;-84
2022/03/27 07:03:48;;;;;;;81.93;34.90;;;8.80;99.90;;;;;;6254188;23;20217;-83
2022/03/27 07:06:16;;;;;;;90.72;37.35;;;8.90;99.90;;;;;;6251316;22;20285;-85
2022/03/27 07:09:04;;;;;;;81.88;37.40;;;8.80;99.90;;;;;;6254071;23;20224;-85
2022/03/27 07:11:31;;;;;;;90.93;37.38;;;9.00;99.90;;;;;;6236183;22;20177;-85
2022/03/27 07:14:13;;;;;;;88.63;34.78;;;9.00;99.90;;;;;;6252936;23;20606;-85
2022/03/27 07:16:40;;;;;;;90.53;38.25;;;8.90;99.90;;;;;;6251948;22;20198;-84
2022/03/27 07:19:08;;;;;;;96.85;37.20;;;9.00;99.90;;;;;;6253275;23;20190;-85
2022/03/27 07:21:36;;;;;;;80.65;37.05;;;9.10;99.90;;;;;;6257909;23;20178;-82
2022/03/27 07:24:07;;;;;;;90.50;34.67;;;9.10;99.90;;;;;;6255670;23;20179;-85
2022/03/27 07:26:35;;;;;;;75.00;34.75;;;9.00;99.90;;;;;;6254075;22;20195;-83
2022/03/27 07:29:09;;;;;;;84.50;36.90;;;9.10;99.90;;;;;;6255979;23;20189;-84
2022/03/27 07:31:36;;;;;;;75.57;36.63;;;9.20;99.90;;;;;;6256579;23;20165;-85
2022/03/27 07:34:06;;;;;;;89.63;38.95;;;9.10;99.90;;;;;;6254652;23;20177;-85
2022/03/27 07:36:34;;;;;;;81.53;32.03;;;9.00;99.90;;;;;;6256035;22;20642;-84
2022/03/27 07:39:00;;;;;;;101.07;39.83;;;9.10;99.90;;;;;;6257326;22;20177;-83
2022/03/27 07:41:27;;;;;;;89.68;39.05;;;9.30;99.90;;;;;;6255141;23;20194;-85
2022/03/27 07:43:57;;;;;;;103.65;42.03;;;9.20;99.90;;;;;;6252445;23;20194;-85
2022/03/27 07:46:26;;;;;;;101.97;40.08;;;9.30;99.90;;;;;;6253959;22;20677;-84
2022/03/27 07:48:53;;;;;;;91.13;39.00;;;9.20;99.90;;;;;;6253833;23;20182;-85
2022/03/27 07:51:20;;;;;;;100.13;43.30;;;9.20;99.90;;;;;;6256503;23;20174;-85
2022/03/27 07:53:47;;;;;;;92.43;43.65;;;9.30;99.90;;;;;;6256936;22;20187;-85
2022/03/27 07:56:13;;;;;;;95.65;38.63;;;9.30;99.90;;;;;;6256539;22;20618;-84
2022/03/27 07:58:40;;;;;;;81.28;39.42;;;9.40;99.90;;;;;;6258088;22;20206;-84
2022/03/27 08:01:07;;;;;;;81.32;37.30;;;9.40;99.90;;;;;;6253986;23;20618;-85
2022/03/27 08:03:38;;;;;;;83.45;38.30;;;9.40;99.90;;;;;;6252607;22;20189;-85
2022/03/27 08:06:05;;;;;;;76.47;38.17;;;9.30;99.90;;;;;;6252684;22;20195;-85
2022/03/27 08:08:32;;;;;;;95.38;41.03;;;9.50;99.90;;;;;;6254830;23;20186;-85
2022/03/27 08:10:59;;;;;;;84.47;39.60;;;9.60;99.90;;;;;;6254577;23;20669;-85
2022/03/27 08:13:26;;;;;;;87.45;38.83;;;9.60;99.90;;;;;;6252474;23;20211;-84
2022/03/27 08:15:54;;;;;;;84.68;40.92;;;9.70;99.90;;;;;;6253074;22;20171;-85
2022/03/27 08:18:21;;;;;;;99.60;43.35;;;9.80;99.90;;;;;;6252733;22;20183;-86
2022/03/27 08:20:49;;;;;;;100.32;44.30;;;9.90;99.90;;;;;;6253386;22;20248;-85
2022/03/27 08:23:16;;;;;;;91.03;44.30;;;9.90;99.90;;;;;;6253723;23;20182;-85
2022/03/27 08:28:36;;;;;;;87.65;44.60;;;10.00;99.90;;;;;;6200131;23;20179;-85
2022/03/27 08:31:03;;;;;;;101.80;45.28;;;10.20;99.90;;;;;;6251846;23;20229;-85
2022/03/27 08:33:30;;;;;;;99.97;47.40;;;10.00;99.90;;;;;;6253733;23;20179;-85
2022/03/27 08:35:58;;;;;;;103.88;46.95;;;10.00;99.90;;;;;;6253738;22;20178;-86
2022/03/27 08:38:25;;;;;;;111.78;49.65;;;10.00;99.90;;;;;;6254198;23;20266;-87
2022/03/27 08:40:55;;;;;;;106.88;51.13;;;10.00;99.90;;;;;;6253167;23;20202;-84
2022/03/27 08:43:23;;;;;;;97.38;50.00;;;10.00;99.90;;;;;;6254452;22;20147;-86
2022/03/27 08:45:50;;;;;;;104.78;49.72;;;10.10;99.90;;;;;;6254042;22;20206;-85
2022/03/27 08:48:18;;;;;;;94.72;49.50;;;10.20;99.90;;;;;;6255333;22;20209;-86
2022/03/27 08:50:51;;;;;;;99.90;49.47;;;10.30;99.90;;;;;;6252292;23;20234;-88
2022/03/27 08:53:29;;;;;;;107.10;46.97;;;10.40;99.90;;;;;;6256027;23;20662;-85
2022/03/27 08:56:00;;;;;;;102.47;49.97;;;10.40;99.90;;;;;;6256255;22;20185;-84
2022/03/27 08:58:33;;;;;;;102.57;49.10;;;10.20;99.90;;;;;;6254929;22;20224;-86
2022/03/27 09:01:00;;;;;;;108.30;49.63;;;10.40;99.90;;;;;;6257588;23;20163;-85
2022/03/27 09:03:27;;;;;;;86.65;45.75;;;10.40;99.90;;;;;;6258472;22;20227;-84
2022/03/27 09:05:54;;;;;;;100.88;48.83;;;10.30;99.90;;;;;;6260715;22;20199;-84
2022/03/27 09:08:22;;;;;;;107.57;51.33;;;10.30;99.90;;;;;;6265936;22;20205;-83
2022/03/27 09:10:49;;;;;;;95.60;48.80;;;10.50;99.90;;;;;;6267432;22;20175;-83
2022/03/27 09:13:18;;;;;;;105.95;52.22;;;10.60;99.90;;;;;;6267002;22;20415;-84
2022/03/27 09:15:46;;;;;;;93.10;46.45;;;10.60;99.90;;;;;;6261584;22;20250;-85
2022/03/27 09:18:14;;;;;;;100.47;46.92;;;10.70;99.90;;;;;;6262262;23;20183;-86
2022/03/27 09:20:43;;;;;;;97.60;49.40;;;10.80;99.90;;;;;;6262210;23;20651;-85
2022/03/27 09:23:26;;;;;;;115.93;51.92;;;10.90;99.90;;;;;;6265261;23;20179;-86
2022/03/27 09:25:57;;;;;;;100.32;50.45;;;10.40;99.90;;;;;;6266255;22;20213;-85
2022/03/27 09:28:30;;;;;;;103.40;53.78;;;10.60;99.90;;;;;;6265440;23;20171;-85
2022/03/27 09:30:58;;;;;;;101.90;49.47;;;10.80;99.90;;;;;;6265307;22;20159;-85
2022/03/27 09:33:48;;;;;;;98.28;49.53;;;11.00;99.90;;;;;;6265646;23;20179;-84
2022/03/27 09:36:19;;;;;;;100.82;43.67;;;11.00;99.90;;;;;;6267538;22;20257;-84
2022/03/27 09:39:11;;;;;;;100.28;47.88;;;11.20;99.90;;;;;;6267345;23;20531;-85
2022/03/27 09:41:41;;;;;;;105.50;47.83;;;11.60;99.90;;;;;;6265703;23;20164;-84
2022/03/27 09:44:10;;;;;;;102.15;46.83;;;11.70;99.90;;;;;;6262587;22;20208;-85
2022/03/27 09:46:52;;;;;;;93.90;47.70;;;12.00;99.90;;;;;;6260048;22;20208;-84
2022/03/27 09:49:21;;;;;;;94.50;47.50;;;11.80;99.90;;;;;;6263390;23;20204;-84
2022/03/27 09:51:52;;;;;;;111.45;46.05;;;11.80;99.90;;;;;;6260087;23;20228;-83
2022/03/27 09:54:21;;;;;;;81.80;43.90;;;12.00;99.90;;;;;;6261991;23;20189;-87
2022/03/27 09:56:49;;;;;;;104.97;49.35;;;12.40;99.90;;;;;;6261972;22;20193;-79
2022/03/27 09:59:32;;;;;;;115.82;51.58;;;12.50;99.90;;;;;;6271528;22;20200;-80
2022/03/27 10:02:19;;;;;;;103.32;52.97;;;12.60;99.90;;;;;;6267838;22;20177;-82
2022/03/27 10:04:53;;;;;;;102.07;48.92;;;12.70;99.90;;;;;;6270261;23;20272;-81
2022/03/27 10:07:20;;;;;;;108.18;52.30;;;12.70;99.90;;;;;;6270931;22;20205;-82
2022/03/27 10:09:48;;;;;;;96.40;48.28;;;12.80;99.90;;;;;;6266563;23;20170;-81
2022/03/27 10:12:16;;;;;;;94.85;47.25;;;12.80;99.90;;;;;;6265570;23;20197;-84
2022/03/27 10:14:44;;;;;;;109.50;49.55;;;13.00;99.90;;;;;;6265156;22;20189;-79
2022/03/27 10:17:12;;;;;;;110.20;54.33;;;13.00;99.90;;;;;;6263716;22;20676;-82
2022/03/27 10:19:45;;;;;;;110.30;53.15;;;13.30;99.90;;;;;;6263592;23;20174;-82
2022/03/27 10:22:20;;;;;;;96.82;50.20;;;13.50;99.90;;;;;;6261834;22;20206;-82
2022/03/27 10:24:51;;;;;;;97.05;50.42;;;13.60;99.90;;;;;;6268831;22;20197;-81
2022/03/27 10:27:19;;;;;;;103.50;53.13;;;13.80;99.90;;;;;;6272236;22;20179;-80
2022/03/27 10:29:47;;;;;;;99.25;55.58;;;13.90;99.90;;;;;;6271912;22;20195;-79
2022/03/27 10:32:14;;;;;;;100.20;49.67;;;13.90;99.90;;;;;;6272503;22;20159;-81
2022/03/27 10:34:50;;;;;;;93.28;49.70;;;13.80;99.90;;;;;;6272259;22;20180;-81
2022/03/27 10:37:27;;;;;;;103.45;51.20;;;13.80;99.90;;;;;;6271908;22;20189;-80
2022/03/27 10:40:02;;;;;;;111.72;54.53;;;13.90;99.90;;;;;;6271386;22;20171;-81
2022/03/27 10:42:41;;;;;;;104.95;52.15;;;14.00;99.90;;;;;;6271444;22;20154;-82
2022/03/27 10:45:15;;;;;;;97.43;48.28;;;14.00;99.90;;;;;;6272214;22;20182;-80
2022/03/27 10:47:42;;;;;;;113.53;51.80;;;13.50;99.90;;;;;;6272027;22;20190;-80
2022/03/27 10:50:23;;;;;;;113.63;55.55;;;13.60;99.90;;;;;;6266921;22;20178;-83
2022/03/27 10:53:09;;;;;;;103.22;52.80;;;14.00;99.90;;;;;;6262244;23;20221;-83
2022/03/27 10:55:39;;;;;;;102.93;54.20;;;14.40;99.90;;;;;;6260672;23;20238;-81
2022/03/27 10:58:35;;;;;;;133.68;57.47;;;14.40;99.90;;;;;;6260775;22;20697;-83
2022/03/27 11:01:04;;;;;;;112.63;57.47;;;14.70;99.90;;;;;;6268466;22;20147;-81
2022/03/27 11:04:05;;;;;;;117.70;62.10;;;15.00;99.90;;;;;;6270531;22;20392;-80
2022/03/27 11:06:34;;;;;;;125.47;59.67;;;15.10;99.90;;;;;;6221421;22;20288;-80
2022/03/27 11:12:04;;;;;;;115.93;58.53;;;15.00;99.90;;;;;;6229551;22;20161;-81
2022/03/27 11:14:57;;;;;;;118.13;56.15;;;15.20;99.90;;;;;;6271883;22;20170;-82
2022/03/27 11:17:56;;;;;;;104.68;55.08;;;15.10;99.90;;;;;;6271557;22;20215;-83
2022/03/27 11:20:56;;;;;;;109.85;58.10;;;15.20;99.90;;;;;;6271358;22;20154;-83
2022/03/27 11:23:32;;;;;;;116.47;59.78;;;15.10;99.90;;;;;;6272172;22;20159;-80
2022/03/27 11:26:02;;;;;;;118.32;60.10;;;14.90;99.90;;;;;;6271042;22;20524;-83
2022/03/27 11:31:32;;;;;;;117.20;63.65;;;15.10;99.90;;;;;;5132062;27;20891;-77
2022/03/27 11:34:26;;;;;;;117.95;58.72;;;14.90;99.90;;;;;;5122417;27;20235;-75
2022/03/27 11:37:12;;;;;;;114.43;60.28;;;14.80;99.90;;;;;;5110721;28;20207;-76
2022/03/27 11:39:41;;;;;;;122.40;64.57;;;14.70;99.90;;;;;;5102107;28;20226;-74
2022/03/27 11:42:33;;;;;;;128.05;63.80;;;14.70;99.90;;;;;;5099224;28;20284;-75
2022/03/27 11:45:18;;;;;;;116.95;60.65;;;14.80;99.90;;;;;;5116285;28;20562;-75
2022/03/27 11:47:48;;;;;;;110.43;60.35;;;14.40;99.90;;;;;;5115415;28;20255;-74
2022/03/27 11:50:28;;;;;;;113.05;59.13;;;14.20;99.90;;;;;;5110853;28;20296;-74
2022/03/27 11:52:55;;;;;;;117.10;60.88;;;14.20;99.90;;;;;;5107415;28;20200;-73
2022/03/27 11:55:22;;;;;;;118.65;59.47;;;14.30;99.90;;;;;;5102684;28;20226;-76
2022/03/27 11:57:52;;;;;;;109.13;59.00;;;14.30;99.90;;;;;;5099050;28;20304;-75
2022/03/27 12:00:34;;;;;;;113.70;59.53;;;14.50;99.90;;;;;;5122122;28;20192;-75
2022/03/27 12:03:03;;;;;;;126.38;63.17;;;14.60;99.90;;;;;;5118888;28;20206;-76
2022/03/27 12:05:37;;;;;;;100.60;54.75;;;14.70;99.90;;;;;;5101975;28;20229;-76
2022/03/27 12:08:06;;;;;;;117.93;59.22;;;14.20;99.90;;;;;;5104328;28;20198;-77
2022/03/27 12:10:44;;;;;;;109.53;56.38;;;14.00;99.90;;;;;;5103125;28;20248;-79
2022/03/27 12:13:14;;;;;;;108.00;52.70;;;13.70;99.90;;;;;;5122375;28;20213;-77
2022/03/27 12:15:45;;;;;;;94.78;49.85;;;13.70;99.90;;;;;;5103069;28;20229;-74
2022/03/27 12:18:14;;;;;;;102.63;52.75;;;13.70;99.90;;;;;;5102370;28;20596;-75
2022/03/27 12:20:43;;;;;;;113.90;55.70;;;13.70;99.90;;;;;;5109715;28;20204;-77
2022/03/27 12:23:25;;;;;;;109.05;54.55;;;13.90;99.90;;;;;;5113997;27;20251;-75
2022/03/27 12:32:03;;;;;;;105.95;52.28;;;14.20;99.90;;;;;;5118538;28;20201;-73
2022/03/27 12:34:32;;;;;;;91.47;50.70;;;14.50;99.90;;;;;;5131019;27;20351;-74
2022/03/27 12:37:12;;;;;;;86.97;49.50;;;14.40;99.90;;;;;;5110072;28;20293;-74
2022/03/27 12:39:40;;;;;;;103.80;49.95;;;14.60;99.90;;;;;;5109764;28;20193;-75
2022/03/27 12:42:36;;;;;;;98.43;53.25;;;14.80;99.90;;;;;;5099929;28;20183;-74
2022/03/27 12:45:17;;;;;;;101.63;52.45;;;14.90;99.90;;;;;;5096438;28;20279;-74
2022/03/27 12:47:46;;;;;;;86.10;48.88;;;14.90;99.90;;;;;;5090455;28;20210;-73
2022/03/27 12:50:16;;;;;;;84.38;46.85;;;15.10;99.90;;;;;;5085914;28;20230;-74
2022/03/27 12:52:54;;;;;;;83.43;46.10;;;15.00;99.90;;;;;;5114239;28;20535;-74
2022/03/27 12:55:23;;;;;;;80.80;46.38;;;15.20;99.90;;;;;;5096433;28;20218;-75
2022/03/27 12:57:57;;;;;;;68.88;41.95;;;15.30;99.90;;;;;;5094050;28;20264;-77
2022/03/27 13:00:31;;;;;;;67.95;42.45;;;15.60;99.90;;;;;;5095752;28;20203;-75
2022/03/27 13:03:14;;;;;;;73.68;43.40;;;15.70;99.90;;;;;;5097545;28;20260;-77
2022/03/27 13:05:45;;;;;;;69.13;40.08;;;15.60;99.90;;;;;;5100637;28;20229;-76
2022/03/27 13:08:12;;;;;;;67.30;40.75;;;15.40;99.90;;;;;;5100245;28;20224;-75
2022/03/27 13:10:39;;;;;;;81.70;42.90;;;15.50;99.90;;;;;;5106680;28;20247;-78
2022/03/27 13:13:13;;;;;;;72.20;41.92;;;15.40;99.90;;;;;;5108050;28;20195;-76
2022/03/27 13:15:52;;;;;;;73.65;42.75;;;15.30;99.90;;;;;;5090482;28;20207;-77
2022/03/27 13:18:29;;;;;;;71.72;40.40;;;15.30;99.90;;;;;;5102451;28;20190;-76
2022/03/27 13:20:58;;;;;;;65.30;37.88;;;15.40;99.90;;;;;;5108318;28;21317;-76
2022/03/27 13:23:25;;;;;;;65.00;37.97;;;15.60;99.90;;;;;;5107728;28;20203;-77
2022/03/27 13:25:53;;;;;;;61.28;35.15;;;15.70;99.90;;;;;;5099941;28;20234;-78
2022/03/27 13:28:20;;;;;;;60.97;34.78;;;15.80;99.90;;;;;;5099280;28;20672;-77
2022/03/27 13:30:46;;;;;;;68.28;37.75;;;15.80;99.90;;;;;;5093987;28;20248;-78
2022/03/27 13:33:13;;;;;;;46.75;31.90;;;15.90;99.90;;;;;;5102157;28;20245;-80
2022/03/27 13:35:41;;;;;;;54.58;34.35;;;15.80;99.90;;;;;;5094628;28;20230;-78
2022/03/27 13:38:09;;;;;;;63.33;36.58;;;15.90;99.90;;;;;;5090431;28;20645;-78
2022/03/27 13:43:20;;;;;;;52.38;36.00;;;16.00;99.90;;;;;;5094882;28;20202;-75
2022/03/27 13:45:48;;;;;;;51.00;28.75;;;16.00;99.90;;;;;;5105369;28;20270;-74